sensor_id;sensor_type;location;lat;lon;timestamp;pressure;altitude;pressure_sealevel;temperature;humidity
7824;BME280;3957;48.61947800;9.05303100;2023-02-23T00:00:13;95716.09;;;7.34;100.00
7824;BME280;3957;48.61947800;9.05303100;2023-02-23T00:02:22;95720.00;;;7.38;100.00
7824;BME280;3957;48.61947800;9.05303100;2023-02-23T00:03:22;95721.59;;;7.32;100.00
7824;BME280;3957;48.61947800;9.05303100;2023-02-23T00:04:23;95727.88;;;7.24;100.00
7824;BME280;3957;48.61947800;9.05303100;2023-02-23T00:05:24;95716.56;;;7.15;100.00
7824;BME280;3957;48.61947800;9.05303100;2023-02-23T00:06:27;95722.22;;;7.12;100.00
7824;BME280;3957;48.61947800;9.05303100;2023-02-23T00:07:28;95721.34;;;7.05;100.00
7824;BME280;3957;48.61947800;9.05303100;2023-02-23T00:08:28;95714.16;;;6.99;100.00
7824;BME280;3957;48.61947800;9.05303100;2023-02-23T00:09:29;95717.16;;;6.96;100.00
7824;BME280;3957;48.61947800;9.05303100;2023-02-23T00:10:34;95716.16;;;6.97;100.00
7824;BME280;3957;48.61947800;9.05303100;2023-02-23T00:11:34;95714.22;;;7.06;100.00
7824;BME280;3957;48.61947800;9.05303100;2023-02-23T00:12:35;95714.50;;;6.96;100.00
7824;BME280;3957;48.61947800;9.05303100;2023-02-23T00:13:36;95720.03;;;6.94;100.00
7824;BME280;3957;48.61947800;9.05303100;2023-02-23T00:14:37;95716.41;;;7.02;100.00
7824;BME280;3957;48.61947800;9.05303100;2023-02-23T00:15:37;95714.78;;;7.01;100.00
7824;BME280;3957;48.61947800;9.05303100;2023-02-23T00:16:38;95715.34;;;7.18;100.00
7824;BME280;3957;48.61947800;9.05303100;2023-02-23T00:17:38;95711.97;;;7.09;100.00
7824;BME280;3957;48.61947800;9.05303100;2023-02-23T00:18:51;95709.72;;;7.06;100.00
7824;BME280;3957;48.61947800;9.05303100;2023-02-23T00:19:52;95717.16;;;7.18;100.00
7824;BME280;3957;48.61947800;9.05303100;2023-02-23T00:20:55;95712.38;;;7.06;100.00
7824;BME280;3957;48.61947800;9.05303100;2023-02-23T00:21:56;95714.56;;;7.03;100.00
7824;BME280;3957;48.61947800;9.05303100;2023-02-23T00:22:57;95712.25;;;6.93;100.00
7824;BME280;3957;48.61947800;9.05303100;2023-02-23T00:24:00;95701.38;;;6.88;100.00
7824;BME280;3957;48.61947800;9.05303100;2023-02-23T00:25:01;95710.63;;;6.92;100.00
7824;BME280;3957;48.61947800;9.05303100;2023-02-23T00:26:06;95702.56;;;6.85;100.00
7824;BME280;3957;48.61947800;9.05303100;2023-02-23T00:27:07;95706.41;;;6.83;100.00
7824;BME280;3957;48.61947800;9.05303100;2023-02-23T00:28:07;95704.44;;;6.91;100.00
7824;BME280;3957;48.61947800;9.05303100;2023-02-23T00:29:12;95708.56;;;6.94;100.00
7824;BME280;3957;48.61947800;9.05303100;2023-02-23T00:30:16;95707.88;;;6.85;100.00
7824;BME280;3957;48.61947800;9.05303100;2023-02-23T00:31:21;95714.94;;;6.78;100.00
7824;BME280;3957;48.61947800;9.05303100;2023-02-23T00:32:24;95711.88;;;6.74;100.00
7824;BME280;3957;48.61947800;9.05303100;2023-02-23T00:33:25;95712.41;;;6.70;100.00
7824;BME280;3957;48.61947800;9.05303100;2023-02-23T00:34:25;95704.56;;;6.61;100.00
7824;BME280;3957;48.61947800;9.05303100;2023-02-23T00:35:26;95708.78;;;6.56;100.00
7824;BME280;3957;48.61947800;9.05303100;2023-02-23T00:36:33;95714.22;;;6.47;100.00
7824;BME280;3957;48.61947800;9.05303100;2023-02-23T00:37:33;95716.44;;;6.44;100.00
7824;BME280;3957;48.61947800;9.05303100;2023-02-23T00:38:34;95710.66;;;6.40;100.00
7824;BME280;3957;48.61947800;9.05303100;2023-02-23T00:39:35;95716.81;;;6.41;100.00
7824;BME280;3957;48.61947800;9.05303100;2023-02-23T00:40:38;95718.44;;;6.42;100.00
7824;BME280;3957;48.61947800;9.05303100;2023-02-23T00:41:40;95713.13;;;6.42;100.00
7824;BME280;3957;48.61947800;9.05303100;2023-02-23T00:42:44;95709.94;;;6.46;100.00
7824;BME280;3957;48.61947800;9.05303100;2023-02-23T00:43:45;95713.59;;;6.45;100.00
7824;BME280;3957;48.61947800;9.05303100;2023-02-23T00:44:49;95717.06;;;6.46;100.00
7824;BME280;3957;48.61947800;9.05303100;2023-02-23T00:45:54;95709.56;;;6.50;100.00
7824;BME280;3957;48.61947800;9.05303100;2023-02-23T00:46:55;95722.03;;;6.49;100.00
7824;BME280;3957;48.61947800;9.05303100;2023-02-23T00:47:55;95711.94;;;6.44;100.00
7824;BME280;3957;48.61947800;9.05303100;2023-02-23T00:48:57;95721.09;;;6.42;100.00
7824;BME280;3957;48.61947800;9.05303100;2023-02-23T00:49:57;95713.50;;;6.39;100.00
7824;BME280;3957;48.61947800;9.05303100;2023-02-23T00:51:01;95718.22;;;6.37;100.00
7824;BME280;3957;48.61947800;9.05303100;2023-02-23T00:52:02;95709.41;;;6.36;100.00
7824;BME280;3957;48.61947800;9.05303100;2023-02-23T00:53:03;95708.78;;;6.34;100.00
7824;BME280;3957;48.61947800;9.05303100;2023-02-23T00:54:05;95714.28;;;6.33;100.00
7824;BME280;3957;48.61947800;9.05303100;2023-02-23T00:55:08;95709.59;;;6.35;100.00
7824;BME280;3957;48.61947800;9.05303100;2023-02-23T00:56:10;95714.09;;;6.34;100.00
7824;BME280;3957;48.61947800;9.05303100;2023-02-23T00:57:11;95718.56;;;6.34;100.00
7824;BME280;3957;48.61947800;9.05303100;2023-02-23T00:58:11;95719.22;;;6.36;100.00
7824;BME280;3957;48.61947800;9.05303100;2023-02-23T00:59:15;95714.28;;;6.33;100.00
7824;BME280;3957;48.61947800;9.05303100;2023-02-23T01:00:16;95708.50;;;6.29;100.00
7824;BME280;3957;48.61947800;9.05303100;2023-02-23T01:01:19;95721.41;;;6.32;100.00
7824;BME280;3957;48.61947800;9.05303100;2023-02-23T01:02:20;95712.91;;;6.37;100.00
7824;BME280;3957;48.61947800;9.05303100;2023-02-23T01:03:22;95713.31;;;6.40;100.00
7824;BME280;3957;48.61947800;9.05303100;2023-02-23T01:04:23;95709.00;;;6.39;100.00
7824;BME280;3957;48.61947800;9.05303100;2023-02-23T01:05:23;95720.03;;;6.36;100.00
7824;BME280;3957;48.61947800;9.05303100;2023-02-23T01:06:27;95712.44;;;6.33;100.00
7824;BME280;3957;48.61947800;9.05303100;2023-02-23T01:07:27;95719.75;;;6.31;100.00
7824;BME280;3957;48.61947800;9.05303100;2023-02-23T01:08:32;95717.94;;;6.32;100.00
7824;BME280;3957;48.61947800;9.05303100;2023-02-23T01:09:33;95719.22;;;6.36;100.00
7824;BME280;3957;48.61947800;9.05303100;2023-02-23T01:10:40;95715.28;;;6.32;100.00
7824;BME280;3957;48.61947800;9.05303100;2023-02-23T01:11:45;95719.31;;;6.27;100.00
7824;BME280;3957;48.61947800;9.05303100;2023-02-23T01:12:49;95716.19;;;6.24;100.00
7824;BME280;3957;48.61947800;9.05303100;2023-02-23T01:13:51;95718.03;;;6.23;100.00
7824;BME280;3957;48.61947800;9.05303100;2023-02-23T01:14:52;95715.75;;;6.20;100.00
7824;BME280;3957;48.61947800;9.05303100;2023-02-23T01:15:53;95713.34;;;6.25;100.00
7824;BME280;3957;48.61947800;9.05303100;2023-02-23T01:16:54;95713.91;;;6.21;100.00
7824;BME280;3957;48.61947800;9.05303100;2023-02-23T01:17:54;95710.25;;;6.22;100.00
7824;BME280;3957;48.61947800;9.05303100;2023-02-23T01:18:57;95715.75;;;6.20;100.00
7824;BME280;3957;48.61947800;9.05303100;2023-02-23T01:19:58;95713.09;;;6.20;100.00
7824;BME280;3957;48.61947800;9.05303100;2023-02-23T01:21:00;95711.44;;;6.19;100.00
7824;BME280;3957;48.61947800;9.05303100;2023-02-23T01:22:00;95709.59;;;6.20;100.00
7824;BME280;3957;48.61947800;9.05303100;2023-02-23T01:23:02;95713.44;;;6.17;100.00
7824;BME280;3957;48.61947800;9.05303100;2023-02-23T01:24:03;95718.13;;;6.15;100.00
7824;BME280;3957;48.61947800;9.05303100;2023-02-23T01:25:04;95710.97;;;6.16;100.00
7824;BME280;3957;48.61947800;9.05303100;2023-02-23T01:26:20;95715.88;;;6.12;100.00
7824;BME280;3957;48.61947800;9.05303100;2023-02-23T01:27:21;95717.88;;;6.10;100.00
7824;BME280;3957;48.61947800;9.05303100;2023-02-23T01:28:23;95715.88;;;6.12;100.00
7824;BME280;3957;48.61947800;9.05303100;2023-02-23T01:29:23;95709.50;;;6.13;100.00
7824;BME280;3957;48.61947800;9.05303100;2023-02-23T01:30:24;95714.66;;;6.15;100.00
7824;BME280;3957;48.61947800;9.05303100;2023-02-23T01:31:25;95715.88;;;6.12;100.00
7824;BME280;3957;48.61947800;9.05303100;2023-02-23T01:32:26;95714.41;;;6.09;100.00
7824;BME280;3957;48.61947800;9.05303100;2023-02-23T01:33:26;95719.72;;;6.09;100.00
7824;BME280;3957;48.61947800;9.05303100;2023-02-23T01:34:27;95709.28;;;6.08;100.00
7824;BME280;3957;48.61947800;9.05303100;2023-02-23T01:35:27;95710.56;;;6.12;100.00
7824;BME280;3957;48.61947800;9.05303100;2023-02-23T01:36:34;95716.88;;;6.11;100.00
7824;BME280;3957;48.61947800;9.05303100;2023-02-23T01:37:36;95721.53;;;6.09;100.00
7824;BME280;3957;48.61947800;9.05303100;2023-02-23T01:38:40;95712.16;;;6.13;100.00
7824;BME280;3957;48.61947800;9.05303100;2023-02-23T01:39:40;95715.41;;;6.08;100.00
7824;BME280;3957;48.61947800;9.05303100;2023-02-23T01:40:42;95717.25;;;6.08;100.00
7824;BME280;3957;48.61947800;9.05303100;2023-02-23T01:41:42;95706.63;;;6.08;100.00
7824;BME280;3957;48.61947800;9.05303100;2023-02-23T01:42:45;95715.41;;;6.08;100.00
7824;BME280;3957;48.61947800;9.05303100;2023-02-23T01:44:03;95714.78;;;6.06;100.00
7824;BME280;3957;48.61947800;9.05303100;2023-02-23T01:46:35;95709.00;;;6.03;100.00
7824;BME280;3957;48.61947800;9.05303100;2023-02-23T01:47:38;95719.63;;;6.03;100.00
7824;BME280;3957;48.61947800;9.05303100;2023-02-23T01:48:39;95713.13;;;6.05;100.00
7824;BME280;3957;48.61947800;9.05303100;2023-02-23T01:49:39;95724.56;;;6.06;100.00
7824;BME280;3957;48.61947800;9.05303100;2023-02-23T01:50:51;95721.63;;;6.01;100.00
7824;BME280;3957;48.61947800;9.05303100;2023-02-23T01:52:01;95715.78;;;6.05;100.00
7824;BME280;3957;48.61947800;9.05303100;2023-02-23T01:53:02;95712.28;;;6.05;100.00
7824;BME280;3957;48.61947800;9.05303100;2023-02-23T01:54:13;95718.81;;;6.02;100.00
7824;BME280;3957;48.61947800;9.05303100;2023-02-23T01:55:16;95712.66;;;6.02;100.00
7824;BME280;3957;48.61947800;9.05303100;2023-02-23T01:56:32;95713.03;;;5.99;100.00
7824;BME280;3957;48.61947800;9.05303100;2023-02-23T01:57:34;95713.84;;;5.99;100.00
7824;BME280;3957;48.61947800;9.05303100;2023-02-23T01:58:37;95716.50;;;5.99;100.00
7824;BME280;3957;48.61947800;9.05303100;2023-02-23T01:59:44;95712.66;;;6.02;100.00
7824;BME280;3957;48.61947800;9.05303100;2023-02-23T02:00:51;95709.00;;;6.03;100.00
7824;BME280;3957;48.61947800;9.05303100;2023-02-23T02:01:54;95709.81;;;6.03;100.00
7824;BME280;3957;48.61947800;9.05303100;2023-02-23T02:02:55;95718.81;;;6.02;100.00
7824;BME280;3957;48.61947800;9.05303100;2023-02-23T02:04:00;95716.97;;;6.03;100.00
7824;BME280;3957;48.61947800;9.05303100;2023-02-23T02:05:02;95715.31;;;6.02;100.00
7824;BME280;3957;48.61947800;9.05303100;2023-02-23T02:06:06;95716.97;;;6.03;100.00
7824;BME280;3957;48.61947800;9.05303100;2023-02-23T02:07:15;95708.19;;;6.02;100.00
7824;BME280;3957;48.61947800;9.05303100;2023-02-23T02:08:22;95712.47;;;6.03;100.00
7824;BME280;3957;48.61947800;9.05303100;2023-02-23T02:09:24;95717.34;;;6.00;100.00
7824;BME280;3957;48.61947800;9.05303100;2023-02-23T02:10:27;95717.16;;;6.01;100.00
7824;BME280;3957;48.61947800;9.05303100;2023-02-23T02:11:40;95715.97;;;6.04;100.00
7824;BME280;3957;48.61947800;9.05303100;2023-02-23T02:12:45;95706.97;;;6.05;100.00
7824;BME280;3957;48.61947800;9.05303100;2023-02-23T02:13:56;95706.97;;;6.05;100.00
7824;BME280;3957;48.61947800;9.05303100;2023-02-23T02:14:59;95710.66;;;6.04;100.00
7824;BME280;3957;48.61947800;9.05303100;2023-02-23T02:18:34;95709.19;;;6.01;100.00
7824;BME280;3957;48.61947800;9.05303100;2023-02-23T02:25:53;95699.56;;;6.00;100.00
7824;BME280;3957;48.61947800;9.05303100;2023-02-23T02:27:23;95703.41;;;5.98;100.00
7824;BME280;3957;48.61947800;9.05303100;2023-02-23T02:30:04;95700.75;;;5.98;100.00
7824;BME280;3957;48.61947800;9.05303100;2023-02-23T02:33:44;95697.09;;;5.99;100.00
7824;BME280;3957;48.61947800;9.05303100;2023-02-23T02:34:23;95707.22;;;5.95;100.00
7824;BME280;3957;48.61947800;9.05303100;2023-02-23T02:41:24;95694.44;;;5.99;100.00
7824;BME280;3957;48.61947800;9.05303100;2023-02-23T02:42:36;95693.63;;;5.98;100.00
7824;BME280;3957;48.61947800;9.05303100;2023-02-23T02:44:54;95690.97;;;5.98;100.00
7824;BME280;3957;48.61947800;9.05303100;2023-02-23T02:46:05;95687.47;;;5.98;100.00
7824;BME280;3957;48.61947800;9.05303100;2023-02-23T02:47:15;95693.63;;;5.98;100.00
7824;BME280;3957;48.61947800;9.05303100;2023-02-23T02:50:03;95696.88;;;6.15;100.00
7824;BME280;3957;48.61947800;9.05303100;2023-02-23T02:51:16;95694.97;;;6.09;100.00
7824;BME280;3957;48.61947800;9.05303100;2023-02-23T02:52:29;95688.66;;;6.10;100.00
7824;BME280;3957;48.61947800;9.05303100;2023-02-23T02:55:18;95686.38;;;6.07;100.00
7824;BME280;3957;48.61947800;9.05303100;2023-02-23T02:56:25;95688.38;;;6.05;100.00
7824;BME280;3957;48.61947800;9.05303100;2023-02-23T02:57:28;95682.25;;;6.04;100.00
7824;BME280;3957;48.61947800;9.05303100;2023-02-23T02:58:32;95685.72;;;6.05;100.00
7824;BME280;3957;48.61947800;9.05303100;2023-02-23T02:59:46;95676.94;;;6.04;100.00
7824;BME280;3957;48.61947800;9.05303100;2023-02-23T03:01:08;95681.06;;;6.07;100.00
7824;BME280;3957;48.61947800;9.05303100;2023-02-23T03:02:31;95678.41;;;6.07;100.00
7824;BME280;3957;48.61947800;9.05303100;2023-02-23T03:03:51;95679.22;;;6.07;100.00
7824;BME280;3957;48.61947800;9.05303100;2023-02-23T03:05:18;95678.97;;;6.02;100.00
7824;BME280;3957;48.61947800;9.05303100;2023-02-23T03:06:45;95677.59;;;6.06;100.00
7824;BME280;3957;48.61947800;9.05303100;2023-02-23T03:11:14;95674.34;;;6.11;100.00
7824;BME280;3957;48.61947800;9.05303100;2023-02-23T03:14:32;95670.50;;;6.13;100.00
7824;BME280;3957;48.61947800;9.05303100;2023-02-23T03:17:47;95672.97;;;6.15;100.00
7824;BME280;3957;48.61947800;9.05303100;2023-02-23T03:19:19;95677.28;;;6.16;100.00
7824;BME280;3957;48.61947800;9.05303100;2023-02-23T03:20:46;95675.72;;;6.22;100.00
7824;BME280;3957;48.61947800;9.05303100;2023-02-23T03:23:51;95677.00;;;6.26;100.00
7824;BME280;3957;48.61947800;9.05303100;2023-02-23T03:25:18;95676.09;;;6.19;100.00
7824;BME280;3957;48.61947800;9.05303100;2023-02-23T03:27:04;95673.88;;;6.22;100.00
7824;BME280;3957;48.61947800;9.05303100;2023-02-23T03:28:30;95672.50;;;6.26;100.00
7824;BME280;3957;48.61947800;9.05303100;2023-02-23T03:30:03;95675.97;;;6.27;100.00
7824;BME280;3957;48.61947800;9.05303100;2023-02-23T03:32:59;95677.00;;;6.26;100.00
7824;BME280;3957;48.61947800;9.05303100;2023-02-23T03:34:45;95670.09;;;6.32;100.00
7824;BME280;3957;48.61947800;9.05303100;2023-02-23T03:36:11;95676.03;;;6.34;100.00
7824;BME280;3957;48.61947800;9.05303100;2023-02-23T03:38:28;95676.88;;;6.34;100.00
7824;BME280;3957;48.61947800;9.05303100;2023-02-23T03:39:42;95677.00;;;6.26;100.00
7824;BME280;3957;48.61947800;9.05303100;2023-02-23T03:41:06;95674.41;;;6.33;100.00
7824;BME280;3957;48.61947800;9.05303100;2023-02-23T03:42:30;95674.88;;;6.21;100.00
7824;BME280;3957;48.61947800;9.05303100;2023-02-23T03:43:56;95674.88;;;6.21;100.00
7824;BME280;3957;48.61947800;9.05303100;2023-02-23T03:45:19;95671.78;;;6.18;100.00
7824;BME280;3957;48.61947800;9.05303100;2023-02-23T03:46:40;95678.75;;;6.19;100.00
7824;BME280;3957;48.61947800;9.05303100;2023-02-23T03:48:02;95676.72;;;6.21;100.00
7824;BME280;3957;48.61947800;9.05303100;2023-02-23T03:49:26;95676.91;;;6.19;100.00
7824;BME280;3957;48.61947800;9.05303100;2023-02-23T03:50:55;95671.41;;;6.21;100.00
7824;BME280;3957;48.61947800;9.05303100;2023-02-23T03:52:19;95675.34;;;6.25;100.00
7824;BME280;3957;48.61947800;9.05303100;2023-02-23T03:53:49;95678.09;;;6.17;100.00
7824;BME280;3957;48.61947800;9.05303100;2023-02-23T03:55:16;95680.75;;;6.17;100.00
7824;BME280;3957;48.61947800;9.05303100;2023-02-23T03:56:38;95673.97;;;6.14;100.00
7824;BME280;3957;48.61947800;9.05303100;2023-02-23T03:58:01;95679.66;;;6.11;100.00
7824;BME280;3957;48.61947800;9.05303100;2023-02-23T03:59:25;95679.28;;;6.14;100.00
7824;BME280;3957;48.61947800;9.05303100;2023-02-23T04:00:47;95682.94;;;6.13;100.00
7824;BME280;3957;48.61947800;9.05303100;2023-02-23T04:02:09;95677.28;;;6.16;100.00
7824;BME280;3957;48.61947800;9.05303100;2023-02-23T04:03:31;95684.22;;;6.17;100.00
7824;BME280;3957;48.61947800;9.05303100;2023-02-23T04:04:53;95681.13;;;6.13;100.00
7824;BME280;3957;48.61947800;9.05303100;2023-02-23T04:06:17;95681.69;;;6.09;100.00
7824;BME280;3957;48.61947800;9.05303100;2023-02-23T04:07:37;95679.94;;;6.16;100.00
7824;BME280;3957;48.61947800;9.05303100;2023-02-23T04:09:00;95675.06;;;6.20;100.00
7824;BME280;3957;48.61947800;9.05303100;2023-02-23T04:10:21;95673.88;;;6.22;100.00
7824;BME280;3957;48.61947800;9.05303100;2023-02-23T04:11:57;95675.06;;;6.20;100.00
7824;BME280;3957;48.61947800;9.05303100;2023-02-23T04:13:20;95680.75;;;6.17;100.00
7824;BME280;3957;48.61947800;9.05303100;2023-02-23T04:14:31;95673.97;;;6.14;100.00
7824;BME280;3957;48.61947800;9.05303100;2023-02-23T04:15:58;95677.47;;;6.15;100.00
7824;BME280;3957;48.61947800;9.05303100;2023-02-23T04:17:01;95678.75;;;6.19;100.00
7824;BME280;3957;48.61947800;9.05303100;2023-02-23T04:18:04;95684.22;;;6.17;100.00
7824;BME280;3957;48.61947800;9.05303100;2023-02-23T04:19:05;95673.16;;;6.13;100.00
7824;BME280;3957;48.61947800;9.05303100;2023-02-23T04:20:05;95670.88;;;6.10;100.00
7824;BME280;3957;48.61947800;9.05303100;2023-02-23T04:21:06;95681.31;;;6.12;100.00
7824;BME280;3957;48.61947800;9.05303100;2023-02-23T04:22:06;95677.00;;;6.11;100.00
7824;BME280;3957;48.61947800;9.05303100;2023-02-23T04:23:07;95681.69;;;6.09;100.00
7824;BME280;3957;48.61947800;9.05303100;2023-02-23T04:24:08;95677.59;;;6.06;100.00
7824;BME280;3957;48.61947800;9.05303100;2023-02-23T04:25:08;95682.72;;;6.08;100.00
7824;BME280;3957;48.61947800;9.05303100;2023-02-23T04:26:09;95675.09;;;6.05;100.00
7824;BME280;3957;48.61947800;9.05303100;2023-02-23T04:27:09;95682.06;;;6.06;100.00
7824;BME280;3957;48.61947800;9.05303100;2023-02-23T04:28:09;95681.06;;;6.07;100.00
7824;BME280;3957;48.61947800;9.05303100;2023-02-23T04:29:11;95682.91;;;6.06;100.00
7824;BME280;3957;48.61947800;9.05303100;2023-02-23T04:30:11;95684.00;;;6.12;100.00
7824;BME280;3957;48.61947800;9.05303100;2023-02-23T04:31:12;95680.69;;;6.10;100.00
7824;BME280;3957;48.61947800;9.05303100;2023-02-23T04:32:15;95685.56;;;6.06;100.00
7824;BME280;3957;48.61947800;9.05303100;2023-02-23T04:33:16;95682.84;;;6.21;100.00
7824;BME280;3957;48.61947800;9.05303100;2023-02-23T04:34:16;95682.13;;;6.12;100.00
7824;BME280;3957;48.61947800;9.05303100;2023-02-23T04:35:17;95681.03;;;6.22;100.00
7824;BME280;3957;48.61947800;9.05303100;2023-02-23T04:36:17;95676.44;;;6.16;100.00
7824;BME280;3957;48.61947800;9.05303100;2023-02-23T04:37:18;95679.28;;;6.14;100.00
7824;BME280;3957;48.61947800;9.05303100;2023-02-23T04:38:19;95682.53;;;6.09;100.00
7824;BME280;3957;48.61947800;9.05303100;2023-02-23T04:39:19;95681.88;;;6.07;100.00
7824;BME280;3957;48.61947800;9.05303100;2023-02-23T04:40:20;95684.09;;;6.04;100.00
7824;BME280;3957;48.61947800;9.05303100;2023-02-23T04:41:20;95684.63;;;5.99;100.00
7824;BME280;3957;48.61947800;9.05303100;2023-02-23T04:42:20;95684.81;;;5.98;100.00
7824;BME280;3957;48.61947800;9.05303100;2023-02-23T04:43:22;95683.97;;;5.97;100.00
7824;BME280;3957;48.61947800;9.05303100;2023-02-23T04:44:22;95682.91;;;6.06;100.00
7824;BME280;3957;48.61947800;9.05303100;2023-02-23T04:45:23;95686.47;;;5.99;100.00
7824;BME280;3957;48.61947800;9.05303100;2023-02-23T04:46:24;95682.50;;;5.94;100.00
7824;BME280;3957;48.61947800;9.05303100;2023-02-23T04:47:25;95687.56;;;6.04;100.00
7824;BME280;3957;48.61947800;9.05303100;2023-02-23T04:48:25;95688.84;;;6.08;100.00
7824;BME280;3957;48.61947800;9.05303100;2023-02-23T04:49:26;95685.38;;;6.08;100.00
7824;BME280;3957;48.61947800;9.05303100;2023-02-23T04:50:26;95685.91;;;6.03;100.00
7824;BME280;3957;48.61947800;9.05303100;2023-02-23T04:51:27;95690.13;;;5.98;100.00
7824;BME280;3957;48.61947800;9.05303100;2023-02-23T04:52:31;95685.66;;;5.98;100.00
7824;BME280;3957;48.61947800;9.05303100;2023-02-23T04:53:32;95690.13;;;5.98;100.00
7824;BME280;3957;48.61947800;9.05303100;2023-02-23T04:54:32;95687.84;;;6.09;100.00
7824;BME280;3957;48.61947800;9.05303100;2023-02-23T04:55:33;95696.88;;;6.15;100.00
7824;BME280;3957;48.61947800;9.05303100;2023-02-23T04:56:33;95691.75;;;6.13;100.00
7824;BME280;3957;48.61947800;9.05303100;2023-02-23T04:57:34;95687.66;;;6.11;100.00
7824;BME280;3957;48.61947800;9.05303100;2023-02-23T04:58:34;95689.22;;;6.05;100.00
7824;BME280;3957;48.61947800;9.05303100;2023-02-23T04:59:35;95689.03;;;6.07;100.00
7824;BME280;3957;48.61947800;9.05303100;2023-02-23T05:00:35;95683.44;;;6.02;100.00
7824;BME280;3957;48.61947800;9.05303100;2023-02-23T05:01:38;95687.28;;;5.99;100.00
7824;BME280;3957;48.61947800;9.05303100;2023-02-23T05:02:39;95693.13;;;5.94;100.00
7824;BME280;3957;48.61947800;9.05303100;2023-02-23T05:03:39;95689.66;;;5.94;100.00
7824;BME280;3957;48.61947800;9.05303100;2023-02-23T05:04:40;95689.47;;;5.95;100.00
7824;BME280;3957;48.61947800;9.05303100;2023-02-23T05:05:40;95687.47;;;5.98;100.00
7824;BME280;3957;48.61947800;9.05303100;2023-02-23T05:06:41;95687.81;;;5.94;100.00
7824;BME280;3957;48.61947800;9.05303100;2023-02-23T05:07:42;95684.69;;;5.91;100.00
7824;BME280;3957;48.61947800;9.05303100;2023-02-23T05:08:43;95684.06;;;5.89;100.00
7824;BME280;3957;48.61947800;9.05303100;2023-02-23T05:09:43;95690.38;;;5.88;100.00
7824;BME280;3957;48.61947800;9.05303100;2023-02-23T05:10:44;95681.22;;;5.90;100.00
7824;BME280;3957;48.61947800;9.05303100;2023-02-23T05:11:45;95683.41;;;5.87;100.00
7824;BME280;3957;48.61947800;9.05303100;2023-02-23T05:12:45;95685.25;;;5.86;100.00
7824;BME280;3957;48.61947800;9.05303100;2023-02-23T05:13:46;95695.88;;;5.86;100.00
7824;BME280;3957;48.61947800;9.05303100;2023-02-23T05:14:46;95689.66;;;5.94;100.00
7824;BME280;3957;48.61947800;9.05303100;2023-02-23T05:15:46;95682.63;;;6.01;100.00
7824;BME280;3957;48.61947800;9.05303100;2023-02-23T05:16:47;95683.97;;;5.97;100.00
7824;BME280;3957;48.61947800;9.05303100;2023-02-23T05:17:47;95685.34;;;5.93;100.00
7824;BME280;3957;48.61947800;9.05303100;2023-02-23T05:18:47;95682.03;;;5.91;100.00
7824;BME280;3957;48.61947800;9.05303100;2023-02-23T05:19:48;95683.06;;;6.05;100.00
7824;BME280;3957;48.61947800;9.05303100;2023-02-23T05:20:49;95693.44;;;6.00;100.00
7824;BME280;3957;48.61947800;9.05303100;2023-02-23T05:21:49;95689.66;;;6.09;100.00
7824;BME280;3957;48.61947800;9.05303100;2023-02-23T05:22:49;95682.81;;;6.00;100.00
7824;BME280;3957;48.61947800;9.05303100;2023-02-23T05:23:50;95688.63;;;5.95;100.00
7824;BME280;3957;48.61947800;9.05303100;2023-02-23T05:24:50;95681.69;;;5.94;100.00
7824;BME280;3957;48.61947800;9.05303100;2023-02-23T05:25:50;95686.34;;;5.92;100.00
7824;BME280;3957;48.61947800;9.05303100;2023-02-23T05:26:51;95692.13;;;5.95;100.00
7824;BME280;3957;48.61947800;9.05303100;2023-02-23T05:27:52;95682.69;;;5.93;100.00
7824;BME280;3957;48.61947800;9.05303100;2023-02-23T05:28:53;95689.13;;;5.99;100.00
7824;BME280;3957;48.61947800;9.05303100;2023-02-23T05:29:56;95685.78;;;5.96;100.00
7824;BME280;3957;48.61947800;9.05303100;2023-02-23T05:30:56;95688.81;;;5.93;100.00
7824;BME280;3957;48.61947800;9.05303100;2023-02-23T05:31:56;95681.03;;;5.92;100.00
7824;BME280;3957;48.61947800;9.05303100;2023-02-23T05:32:57;95687.00;;;5.94;100.00
7824;BME280;3957;48.61947800;9.05303100;2023-02-23T05:33:57;95692.25;;;6.02;100.00
7824;BME280;3957;48.61947800;9.05303100;2023-02-23T05:34:58;95684.97;;;5.96;100.00
7824;BME280;3957;48.61947800;9.05303100;2023-02-23T05:35:59;95685.28;;;6.01;100.00
7824;BME280;3957;48.61947800;9.05303100;2023-02-23T05:36:59;95684.34;;;6.09;100.00
7824;BME280;3957;48.61947800;9.05303100;2023-02-23T05:37:59;95690.41;;;6.03;100.00
7824;BME280;3957;48.61947800;9.05303100;2023-02-23T05:39:00;95684.63;;;5.99;100.00
7824;BME280;3957;48.61947800;9.05303100;2023-02-23T05:40:00;95683.88;;;5.90;100.00
7824;BME280;3957;48.61947800;9.05303100;2023-02-23T05:41:08;95685.25;;;5.86;100.00
7824;BME280;3957;48.61947800;9.05303100;2023-02-23T05:42:08;95689.09;;;5.84;100.00
7824;BME280;3957;48.61947800;9.05303100;2023-02-23T05:43:08;95688.66;;;5.80;100.00
7824;BME280;3957;48.61947800;9.05303100;2023-02-23T05:44:09;95689.94;;;5.84;100.00
7824;BME280;3957;48.61947800;9.05303100;2023-02-23T05:45:09;95696.25;;;5.83;100.00
7824;BME280;3957;48.61947800;9.05303100;2023-02-23T05:46:13;95693.06;;;6.03;100.00
7824;BME280;3957;48.61947800;9.05303100;2023-02-23T05:47:14;95686.72;;;5.89;100.00
7824;BME280;3957;48.61947800;9.05303100;2023-02-23T05:48:14;95690.38;;;5.88;100.00
7824;BME280;3957;48.61947800;9.05303100;2023-02-23T05:49:14;95683.41;;;5.87;100.00
7824;BME280;3957;48.61947800;9.05303100;2023-02-23T05:50:15;95688.00;;;5.93;100.00
7824;BME280;3957;48.61947800;9.05303100;2023-02-23T05:51:16;95689.84;;;5.92;100.00
7824;BME280;3957;48.61947800;9.05303100;2023-02-23T05:52:17;95689.56;;;5.87;100.00